Time;durP1;ratioP1;P1;durP2;ratioP2;P2;SDS_P1;SDS_P2;PMS_P1;PMS_P2;Temp;Humidity;BMP_temperature;BMP_pressure;BME280_temperature;BME280_humidity;BME280_pressure;Samples;Min_cycle;Max_cycle;Signal;HPM_P1;HPM_P2
2022/10/07 00:00:32;;;;;;;;;;;23.70;48.60;;;;;;487069;245;1391;-74
2022/10/07 00:02:33;;;;;;;;;;;23.70;48.60;;;;;;487106;245;1225;-74
2022/10/07 00:04:35;;;;;;;;;;;23.80;48.60;;;;;;487134;245;1318;-74
2022/10/07 00:06:36;;;;;;;;;;;23.70;48.70;;;;;;487072;245;1512;-75
2022/10/07 00:08:37;;;;;;;;;;;23.70;48.70;;;;;;487113;245;1223;-75
2022/10/07 00:10:39;;;;;;;;;;;23.80;48.60;;;;;;487148;244;1119;-74
2022/10/07 00:12:40;;;;;;;;;;;23.80;48.60;;;;;;487113;245;2198;-74
2022/10/07 00:14:42;;;;;;;;;;;23.70;48.50;;;;;;487088;245;1156;-74
2022/10/07 00:16:43;;;;;;;;;;;23.80;48.50;;;;;;487144;245;1094;-74
2022/10/07 00:18:44;;;;;;;;;;;23.70;48.60;;;;;;487136;244;1219;-74
2022/10/07 00:20:46;;;;;;;;;;;23.70;48.60;;;;;;487105;245;1177;-74
2022/10/07 00:22:47;;;;;;;;;;;23.70;48.60;;;;;;487114;245;1183;-74
2022/10/07 00:24:48;;;;;;;;;;;23.70;48.50;;;;;;487075;245;1140;-75
2022/10/07 00:26:50;;;;;;;;;;;23.70;48.50;;;;;;487107;245;1139;-75
2022/10/07 00:28:51;;;;;;;;;;;23.70;48.60;;;;;;487130;244;1325;-75
2022/10/07 00:30:52;;;;;;;;;;;23.70;48.50;;;;;;487105;245;1217;-75
2022/10/07 00:32:54;;;;;;;;;;;23.70;48.60;;;;;;487095;245;2202;-74
2022/10/07 00:34:55;;;;;;;;;;;23.70;48.50;;;;;;487078;245;1250;-75
2022/10/07 00:36:56;;;;;;;;;;;23.70;48.60;;;;;;487092;245;1198;-75
2022/10/07 00:38:58;;;;;;;;;;;23.70;48.60;;;;;;487082;245;1090;-75
2022/10/07 00:40:59;;;;;;;;;;;23.70;48.50;;;;;;487134;244;1252;-75
2022/10/07 00:43:00;;;;;;;;;;;23.70;48.50;;;;;;487062;245;1101;-75
2022/10/07 00:45:02;;;;;;;;;;;23.60;48.50;;;;;;487106;244;1183;-75
2022/10/07 00:47:03;;;;;;;;;;;23.70;48.50;;;;;;487122;245;1288;-75
2022/10/07 00:49:04;;;;;;;;;;;23.70;48.40;;;;;;487106;245;1182;-74
2022/10/07 00:51:06;;;;;;;;;;;23.70;48.40;;;;;;487041;245;1259;-74
2022/10/07 00:53:08;;;;;;;;;;;23.70;48.30;;;;;;487074;244;2190;-74
2022/10/07 00:55:08;;;;;;;;;;;23.80;48.30;;;;;;487033;245;1426;-74
2022/10/07 00:57:10;;;;;;;;;;;23.80;48.30;;;;;;487033;244;1439;-74
2022/10/07 00:59:11;;;;;;;;;;;23.70;48.20;;;;;;487066;245;1240;-74
2022/10/07 01:01:12;;;;;;;;;;;23.70;48.30;;;;;;487124;245;1195;-74
2022/10/07 01:03:14;;;;;;;;;;;23.70;48.40;;;;;;487075;244;1133;-74
2022/10/07 01:05:16;;;;;;;;;;;23.70;48.40;;;;;;487067;245;1203;-74
2022/10/07 01:07:19;;;;;;;;;;;23.70;48.30;;;;;;487065;244;1605;-74
2022/10/07 01:09:20;;;;;;;;;;;23.70;48.40;;;;;;486990;245;1319;-75
2022/10/07 01:11:20;;;;;;;;;;;23.70;48.30;;;;;;486957;245;1442;-74
2022/10/07 01:13:21;;;;;;;;;;;23.70;48.30;;;;;;487113;244;2201;-74
2022/10/07 01:15:23;;;;;;;;;;;23.70;48.20;;;;;;487056;245;1284;-75
2022/10/07 01:17:25;;;;;;;;;;;23.70;48.20;;;;;;487161;244;1297;-75
2022/10/07 01:19:26;;;;;;;;;;;23.70;48.20;;;;;;487076;245;1213;-74
2022/10/07 01:21:27;;;;;;;;;;;23.70;48.30;;;;;;487135;244;1228;-74
2022/10/07 01:23:29;;;;;;;;;;;23.70;48.20;;;;;;487108;245;1190;-74
2022/10/07 01:25:31;;;;;;;;;;;23.70;48.20;;;;;;486981;245;1254;-74
2022/10/07 01:27:32;;;;;;;;;;;23.70;48.30;;;;;;487115;244;1157;-75
2022/10/07 01:29:34;;;;;;;;;;;23.70;48.10;;;;;;487038;245;1160;-75
2022/10/07 01:31:36;;;;;;;;;;;23.70;48.10;;;;;;487098;245;2199;-74
2022/10/07 01:33:37;;;;;;;;;;;23.70;48.10;;;;;;487033;245;1490;-75
2022/10/07 01:35:38;;;;;;;;;;;23.70;48.00;;;;;;487105;245;1187;-74
2022/10/07 01:37:40;;;;;;;;;;;23.70;48.10;;;;;;487080;245;1179;-74
2022/10/07 01:39:41;;;;;;;;;;;23.70;48.10;;;;;;487224;244;1145;-74
2022/10/07 01:41:42;;;;;;;;;;;23.70;48.10;;;;;;487126;245;1203;-74
2022/10/07 01:43:44;;;;;;;;;;;23.60;48.10;;;;;;487245;244;1115;-74
2022/10/07 01:45:46;;;;;;;;;;;23.70;48.00;;;;;;487088;245;1165;-74
2022/10/07 01:47:47;;;;;;;;;;;23.70;48.00;;;;;;487085;245;1428;-74
2022/10/07 01:49:48;;;;;;;;;;;23.70;48.00;;;;;;487089;245;1256;-75
2022/10/07 01:51:50;;;;;;;;;;;23.70;47.90;;;;;;487074;244;2158;-75
2022/10/07 01:53:51;;;;;;;;;;;23.70;48.00;;;;;;487036;245;1569;-74
2022/10/07 01:55:52;;;;;;;;;;;23.70;48.00;;;;;;487127;245;1191;-74
2022/10/07 01:57:53;;;;;;;;;;;23.70;47.90;;;;;;487091;245;1238;-74
2022/10/07 01:59:55;;;;;;;;;;;23.70;47.90;;;;;;487044;245;1149;-74
2022/10/07 02:01:56;;;;;;;;;;;23.70;47.80;;;;;;487094;245;1206;-74
2022/10/07 02:03:57;;;;;;;;;;;23.70;47.70;;;;;;487074;245;1195;-74
2022/10/07 02:05:59;;;;;;;;;;;23.70;47.80;;;;;;487109;245;1214;-74
2022/10/07 02:08:00;;;;;;;;;;;23.70;47.80;;;;;;487166;244;1379;-74
2022/10/07 02:10:02;;;;;;;;;;;23.80;47.80;;;;;;487146;245;1204;-75
2022/10/07 02:12:03;;;;;;;;;;;23.70;47.80;;;;;;487326;244;2194;-75
2022/10/07 02:14:05;;;;;;;;;;;23.70;47.80;;;;;;487011;245;1241;-74
2022/10/07 02:16:06;;;;;;;;;;;23.70;47.70;;;;;;487118;244;1193;-74
2022/10/07 02:18:07;;;;;;;;;;;23.70;47.70;;;;;;487119;245;1196;-75
2022/10/07 02:20:09;;;;;;;;;;;23.70;47.80;;;;;;487109;245;1314;-75
2022/10/07 02:22:10;;;;;;;;;;;23.70;47.80;;;;;;487083;245;1120;-75
2022/10/07 02:24:11;;;;;;;;;;;23.70;47.90;;;;;;487137;245;1181;-75
2022/10/07 02:26:13;;;;;;;;;;;23.70;47.80;;;;;;487141;245;1113;-74
2022/10/07 02:28:14;;;;;;;;;;;23.60;47.80;;;;;;487156;245;1172;-74
2022/10/07 02:30:15;;;;;;;;;;;23.70;47.80;;;;;;487165;245;1121;-75
2022/10/07 02:32:17;;;;;;;;;;;23.70;47.60;;;;;;487137;244;2159;-75
2022/10/07 02:34:18;;;;;;;;;;;23.60;47.70;;;;;;487151;245;1183;-75
2022/10/07 02:36:21;;;;;;;;;;;23.70;47.70;;;;;;487181;244;1213;-75
2022/10/07 02:38:21;;;;;;;;;;;23.60;47.70;;;;;;487042;245;1515;-75
2022/10/07 02:40:22;;;;;;;;;;;23.60;47.70;;;;;;487160;245;1122;-75
2022/10/07 02:42:24;;;;;;;;;;;23.60;47.70;;;;;;487152;245;1154;-75
2022/10/07 02:44:25;;;;;;;;;;;23.60;47.80;;;;;;487136;245;1198;-75
2022/10/07 02:46:26;;;;;;;;;;;23.60;47.70;;;;;;487147;245;1090;-75
2022/10/07 02:48:27;;;;;;;;;;;23.60;47.60;;;;;;487174;245;1248;-75
2022/10/07 02:50:30;;;;;;;;;;;23.60;47.60;;;;;;487126;245;1142;-75
2022/10/07 02:52:30;;;;;;;;;;;23.70;47.60;;;;;;487128;245;2203;-75
2022/10/07 02:54:32;;;;;;;;;;;23.70;47.50;;;;;;487179;245;1054;-74
2022/10/07 02:56:33;;;;;;;;;;;23.70;47.50;;;;;;487232;244;1123;-74
2022/10/07 02:58:34;;;;;;;;;;;23.70;47.40;;;;;;487122;245;1098;-74
2022/10/07 03:00:36;;;;;;;;;;;23.70;47.50;;;;;;487188;244;1120;-74
2022/10/07 03:02:37;;;;;;;;;;;23.80;47.30;;;;;;487110;245;1151;-75
2022/10/07 03:04:38;;;;;;;;;;;23.70;47.20;;;;;;487243;244;1268;-75
2022/10/07 03:06:41;;;;;;;;;;;23.80;47.20;;;;;;487111;245;1101;-75
2022/10/07 03:08:42;;;;;;;;;;;23.70;47.30;;;;;;487138;244;1339;-75
2022/10/07 03:10:44;;;;;;;;;;;23.80;47.20;;;;;;487136;245;1148;-75
2022/10/07 03:12:45;;;;;;;;;;;23.70;47.20;;;;;;487109;244;2187;-74
2022/10/07 03:14:48;;;;;;;;;;;23.80;47.20;;;;;;487100;245;1149;-74
2022/10/07 03:16:48;;;;;;;;;;;23.70;47.10;;;;;;487002;245;1483;-74
2022/10/07 03:18:50;;;;;;;;;;;23.70;47.20;;;;;;487158;245;1119;-74
2022/10/07 03:20:52;;;;;;;;;;;23.70;47.10;;;;;;487073;245;1484;-74
2022/10/07 03:22:52;;;;;;;;;;;23.70;47.20;;;;;;487088;245;1504;-74
2022/10/07 03:24:53;;;;;;;;;;;23.70;47.10;;;;;;487102;245;1191;-75
2022/10/07 03:26:55;;;;;;;;;;;23.70;47.20;;;;;;487092;245;1178;-74
2022/10/07 03:28:56;;;;;;;;;;;23.70;47.10;;;;;;487141;245;1285;-75
2022/10/07 03:30:57;;;;;;;;;;;23.70;47.00;;;;;;487018;245;1080;-75
2022/10/07 03:32:59;;;;;;;;;;;23.80;47.00;;;;;;487088;245;2201;-75
2022/10/07 03:35:00;;;;;;;;;;;23.70;47.10;;;;;;487081;245;1189;-74
2022/10/07 03:37:01;;;;;;;;;;;23.80;47.00;;;;;;487116;245;1236;-74
2022/10/07 03:39:03;;;;;;;;;;;23.70;47.10;;;;;;487094;245;1137;-74
2022/10/07 03:41:05;;;;;;;;;;;23.80;47.10;;;;;;487032;244;1323;-74
2022/10/07 03:43:06;;;;;;;;;;;23.70;46.90;;;;;;487066;245;1153;-74
2022/10/07 03:45:07;;;;;;;;;;;23.70;46.90;;;;;;487049;245;1171;-74
2022/10/07 03:47:08;;;;;;;;;;;23.80;46.90;;;;;;487164;245;1125;-74
2022/10/07 03:49:10;;;;;;;;;;;23.70;46.90;;;;;;487124;245;1092;-74
2022/10/07 03:51:11;;;;;;;;;;;23.70;46.90;;;;;;487093;245;1169;-74
2022/10/07 03:53:13;;;;;;;;;;;23.70;46.90;;;;;;487090;245;2170;-74
2022/10/07 03:55:15;;;;;;;;;;;23.80;46.80;;;;;;487097;245;1466;-74
2022/10/07 03:59:34;;;;;;;;;;;23.80;46.80;;;;;;487094;245;1293;-74
2022/10/07 04:01:36;;;;;;;;;;;23.80;46.70;;;;;;487106;245;1092;-74
2022/10/07 04:03:37;;;;;;;;;;;23.80;46.70;;;;;;487164;245;1441;-74
2022/10/07 04:05:38;;;;;;;;;;;23.80;46.70;;;;;;487058;244;1203;-74
2022/10/07 04:07:40;;;;;;;;;;;23.70;46.80;;;;;;487094;245;1231;-74
2022/10/07 04:09:41;;;;;;;;;;;23.70;46.70;;;;;;487081;245;1168;-75
2022/10/07 04:11:42;;;;;;;;;;;23.70;46.80;;;;;;487059;245;1165;-75
2022/10/07 04:13:44;;;;;;;;;;;23.80;46.70;;;;;;487059;244;2179;-75
2022/10/07 04:15:46;;;;;;;;;;;23.80;46.70;;;;;;486926;245;1282;-75
2022/10/07 04:17:47;;;;;;;;;;;23.80;46.70;;;;;;487046;245;1246;-75
2022/10/07 04:19:48;;;;;;;;;;;23.70;46.60;;;;;;487056;245;1163;-75
2022/10/07 04:21:50;;;;;;;;;;;23.70;46.60;;;;;;487014;245;1145;-75
2022/10/07 04:23:51;;;;;;;;;;;23.80;46.60;;;;;;487085;245;1234;-75
2022/10/07 04:25:52;;;;;;;;;;;23.80;46.60;;;;;;487048;244;1224;-75
2022/10/07 04:27:54;;;;;;;;;;;23.80;46.60;;;;;;487004;245;1219;-75
2022/10/07 04:29:55;;;;;;;;;;;23.70;46.70;;;;;;487082;244;1140;-75
2022/10/07 04:31:57;;;;;;;;;;;23.70;46.50;;;;;;487041;245;1186;-75
2022/10/07 04:33:58;;;;;;;;;;;23.70;46.60;;;;;;487026;244;2159;-75
2022/10/07 04:35:59;;;;;;;;;;;23.70;46.50;;;;;;486966;245;1180;-75
2022/10/07 04:38:00;;;;;;;;;;;23.70;46.50;;;;;;487021;245;1253;-75
2022/10/07 04:40:02;;;;;;;;;;;23.70;46.40;;;;;;486951;245;1137;-75
2022/10/07 04:42:03;;;;;;;;;;;23.70;46.40;;;;;;487005;244;1114;-75
2022/10/07 04:44:04;;;;;;;;;;;23.70;46.40;;;;;;487025;245;1187;-75
2022/10/07 04:46:06;;;;;;;;;;;23.70;46.40;;;;;;487031;245;1166;-75
2022/10/07 04:48:07;;;;;;;;;;;23.80;46.40;;;;;;487048;245;1336;-75
2022/10/07 04:50:08;;;;;;;;;;;23.70;46.30;;;;;;486977;245;1261;-75
2022/10/07 04:52:10;;;;;;;;;;;23.80;46.40;;;;;;487085;244;1227;-75
2022/10/07 04:54:12;;;;;;;;;;;23.70;46.30;;;;;;486984;245;2190;-75
2022/10/07 04:56:12;;;;;;;;;;;23.70;46.30;;;;;;487040;245;1494;-75
2022/10/07 04:58:14;;;;;;;;;;;23.60;46.50;;;;;;487099;245;1114;-74
2022/10/07 05:00:15;;;;;;;;;;;23.60;46.40;;;;;;487000;245;1138;-74
2022/10/07 05:02:16;;;;;;;;;;;23.70;46.40;;;;;;487099;244;1040;-74
2022/10/07 05:04:18;;;;;;;;;;;23.70;46.40;;;;;;487002;245;1019;-74
2022/10/07 05:06:19;;;;;;;;;;;23.70;46.30;;;;;;487072;245;1046;-74
2022/10/07 05:08:20;;;;;;;;;;;23.60;46.30;;;;;;487114;245;1015;-74
2022/10/07 05:10:22;;;;;;;;;;;23.70;46.30;;;;;;487036;244;1062;-74
2022/10/07 05:12:24;;;;;;;;;;;23.70;46.20;;;;;;487114;244;1068;-74
2022/10/07 05:14:25;;;;;;;;;;;23.70;46.20;;;;;;486912;245;2191;-74
2022/10/07 05:16:26;;;;;;;;;;;23.70;46.10;;;;;;487056;245;1237;-74
2022/10/07 05:18:27;;;;;;;;;;;23.70;46.10;;;;;;487048;244;1163;-74
2022/10/07 05:20:29;;;;;;;;;;;23.70;46.00;;;;;;486969;245;1138;-74
2022/10/07 05:22:30;;;;;;;;;;;23.70;46.00;;;;;;486990;244;1203;-75
2022/10/07 05:24:32;;;;;;;;;;;23.70;46.00;;;;;;487043;245;1100;-75
2022/10/07 05:26:33;;;;;;;;;;;23.70;45.90;;;;;;487098;245;1087;-75
2022/10/07 05:28:34;;;;;;;;;;;23.70;45.90;;;;;;486950;245;1092;-75
2022/10/07 05:30:36;;;;;;;;;;;23.70;45.80;;;;;;486908;245;1124;-75
2022/10/07 05:32:37;;;;;;;;;;;23.70;45.70;;;;;;487019;244;1154;-75
2022/10/07 05:34:38;;;;;;;;;;;23.70;45.70;;;;;;486952;244;2180;-75
2022/10/07 05:36:40;;;;;;;;;;;23.70;45.80;;;;;;487019;244;1021;-75
2022/10/07 05:38:41;;;;;;;;;;;23.70;45.70;;;;;;486995;245;1033;-75
2022/10/07 05:40:42;;;;;;;;;;;23.70;45.60;;;;;;486859;244;1023;-75
2022/10/07 05:42:44;;;;;;;;;;;23.70;45.50;;;;;;486910;245;1101;-75
2022/10/07 05:44:45;;;;;;;;;;;23.70;45.50;;;;;;486864;245;1162;-75
2022/10/07 05:46:46;;;;;;;;;;;23.70;45.40;;;;;;487046;245;1112;-75
2022/10/07 05:48:48;;;;;;;;;;;23.80;45.40;;;;;;486749;245;1114;-75
2022/10/07 05:50:49;;;;;;;;;;;23.80;45.40;;;;;;487000;245;1147;-75
2022/10/07 05:52:50;;;;;;;;;;;23.80;45.40;;;;;;486977;245;1240;-75
2022/10/07 05:54:52;;;;;;;;;;;23.80;45.20;;;;;;487006;244;2186;-75
2022/10/07 05:56:53;;;;;;;;;;;23.80;45.20;;;;;;486993;245;1085;-75
2022/10/07 05:58:56;;;;;;;;;;;23.70;45.30;;;;;;487035;245;1188;-75
2022/10/07 06:00:56;;;;;;;;;;;23.80;45.30;;;;;;486790;245;2125;-74
2022/10/07 06:03:00;;;;;;;;;;;23.70;45.30;;;;;;486925;244;1122;-74
2022/10/07 06:04:59;;;;;;;;;;;23.70;45.30;;;;;;486699;245;1505;-74
2022/10/07 06:07:02;;;;;;;;;;;23.70;45.30;;;;;;486953;244;1103;-74
2022/10/07 06:13:42;;;;;;;;;;;23.70;45.30;;;;;;486876;245;2155;-74
2022/10/07 06:15:43;;;;;;;;;;;23.70;45.10;;;;;;486492;244;1552;-74
2022/10/07 06:17:44;;;;;;;;;;;23.80;45.10;;;;;;486672;245;1072;-74
2022/10/07 06:19:46;;;;;;;;;;;23.90;45.20;;;;;;486549;245;1212;-74
2022/10/07 06:21:47;;;;;;;;;;;23.80;45.20;;;;;;486561;244;1217;-75
2022/10/07 06:23:50;;;;;;;;;;;23.80;45.20;;;;;;486726;245;1252;-75
2022/10/07 06:25:50;;;;;;;;;;;23.90;45.20;;;;;;486636;245;1352;-74
2022/10/07 06:27:51;;;;;;;;;;;23.80;45.20;;;;;;486729;245;1196;-74
2022/10/07 06:29:52;;;;;;;;;;;23.80;45.20;;;;;;486864;244;1103;-75
2022/10/07 06:31:54;;;;;;;;;;;23.90;45.20;;;;;;486641;245;1187;-74
2022/10/07 06:33:55;;;;;;;;;;;23.90;45.30;;;;;;486802;245;2170;-74
2022/10/07 06:35:56;;;;;;;;;;;23.80;45.30;;;;;;486600;244;1173;-75
2022/10/07 06:37:58;;;;;;;;;;;23.80;45.40;;;;;;486736;245;1209;-75
2022/10/07 06:39:59;;;;;;;;;;;23.80;45.40;;;;;;486590;244;1106;-75
2022/10/07 06:42:01;;;;;;;;;;;23.80;45.30;;;;;;486348;245;1101;-75
2022/10/07 06:44:02;;;;;;;;;;;23.80;45.30;;;;;;486547;244;1122;-75
2022/10/07 06:46:03;;;;;;;;;;;23.90;45.40;;;;;;486746;245;1133;-75
2022/10/07 06:48:05;;;;;;;;;;;23.80;45.40;;;;;;486709;244;1082;-75
2022/10/07 06:50:06;;;;;;;;;;;23.80;45.40;;;;;;486492;245;1058;-74
2022/10/07 06:52:07;;;;;;;;;;;23.80;45.40;;;;;;486682;244;1102;-75
2022/10/07 06:54:09;;;;;;;;;;;23.80;45.40;;;;;;486627;244;2181;-75
2022/10/07 06:56:10;;;;;;;;;;;23.90;45.40;;;;;;486671;244;1018;-75
2022/10/07 06:58:11;;;;;;;;;;;23.90;45.40;;;;;;486658;245;1042;-75
2022/10/07 07:00:14;;;;;;;;;;;23.80;45.40;;;;;;486624;245;1223;-74
2022/10/07 07:02:15;;;;;;;;;;;23.80;45.40;;;;;;486674;244;1237;-75
2022/10/07 07:04:16;;;;;;;;;;;23.90;45.40;;;;;;486707;245;1033;-75
2022/10/07 07:06:17;;;;;;;;;;;23.90;45.50;;;;;;486407;244;1147;-75
2022/10/07 07:08:19;;;;;;;;;;;23.80;45.60;;;;;;486504;245;1054;-75
2022/10/07 07:10:20;;;;;;;;;;;23.80;45.60;;;;;;486333;245;1020;-75
2022/10/07 07:12:24;;;;;;;;;;;23.80;45.70;;;;;;486501;245;1099;-75
2022/10/07 07:14:24;;;;;;;;;;;23.90;45.70;;;;;;486563;245;2194;-75
2022/10/07 07:16:24;;;;;;;;;;;23.80;45.70;;;;;;486536;245;1430;-75
2022/10/07 07:18:26;;;;;;;;;;;23.90;45.80;;;;;;486688;245;1155;-75
2022/10/07 07:20:33;;;;;;;;;;;23.80;45.80;;;;;;486654;244;1117;-75
2022/10/07 07:22:29;;;;;;;;;;;23.80;46.00;;;;;;486295;245;1362;-75
2022/10/07 07:24:31;;;;;;;;;;;23.70;46.00;;;;;;486675;244;1205;-75
2022/10/07 07:26:32;;;;;;;;;;;23.80;46.10;;;;;;486778;245;1104;-75
2022/10/07 07:28:33;;;;;;;;;;;23.80;46.20;;;;;;486746;244;1099;-75
2022/10/07 07:30:35;;;;;;;;;;;23.80;46.20;;;;;;486575;245;1190;-74
2022/10/07 07:32:36;;;;;;;;;;;23.80;46.20;;;;;;486591;245;1214;-74
2022/10/07 07:34:37;;;;;;;;;;;23.70;46.30;;;;;;486610;244;2198;-75
2022/10/07 07:36:40;;;;;;;;;;;23.70;46.40;;;;;;486598;245;1240;-75
2022/10/07 07:38:40;;;;;;;;;;;23.80;46.40;;;;;;486685;244;1403;-75
2022/10/07 07:40:41;;;;;;;;;;;23.80;46.40;;;;;;486597;245;1070;-75
2022/10/07 07:42:42;;;;;;;;;;;23.80;46.40;;;;;;486654;245;1246;-75
2022/10/07 07:44:44;;;;;;;;;;;23.80;46.40;;;;;;486764;245;1241;-75
2022/10/07 07:46:47;;;;;;;;;;;23.70;46.50;;;;;;486577;245;1148;-75
2022/10/07 07:48:48;;;;;;;;;;;23.80;46.60;;;;;;486687;245;1405;-75
2022/10/07 07:50:48;;;;;;;;;;;23.70;46.60;;;;;;486325;245;1458;-75
2022/10/07 07:52:49;;;;;;;;;;;23.70;46.70;;;;;;486579;245;1164;-75
2022/10/07 07:54:51;;;;;;;;;;;23.80;46.70;;;;;;486513;245;2198;-74
2022/10/07 07:56:52;;;;;;;;;;;23.70;46.70;;;;;;486600;245;1150;-75
2022/10/07 07:58:53;;;;;;;;;;;23.70;46.80;;;;;;486634;245;1201;-74
2022/10/07 08:00:54;;;;;;;;;;;23.80;46.80;;;;;;486503;245;1288;-74
2022/10/07 08:02:56;;;;;;;;;;;23.80;46.80;;;;;;486382;245;1220;-74
2022/10/07 08:04:57;;;;;;;;;;;23.70;46.80;;;;;;486536;245;1262;-74
2022/10/07 08:06:59;;;;;;;;;;;23.80;46.90;;;;;;486207;245;1152;-75
2022/10/07 08:09:00;;;;;;;;;;;23.80;46.90;;;;;;486431;245;1140;-75
2022/10/07 08:11:01;;;;;;;;;;;23.80;46.90;;;;;;486633;244;1149;-75
2022/10/07 08:13:03;;;;;;;;;;;23.80;47.00;;;;;;486589;245;1179;-74
2022/10/07 08:15:04;;;;;;;;;;;23.80;47.00;;;;;;486619;244;2190;-74
2022/10/07 08:17:05;;;;;;;;;;;23.90;46.90;;;;;;486463;245;1163;-74
2022/10/07 08:19:07;;;;;;;;;;;23.90;46.80;;;;;;486639;245;1096;-74
2022/10/07 08:21:09;;;;;;;;;;;23.90;46.90;;;;;;486701;245;1106;-74
2022/10/07 08:23:09;;;;;;;;;;;23.80;47.00;;;;;;486650;244;1408;-74
2022/10/07 08:25:11;;;;;;;;;;;23.80;47.10;;;;;;486597;245;1095;-75
2022/10/07 08:27:12;;;;;;;;;;;23.80;47.30;;;;;;486814;244;1167;-75
2022/10/07 08:29:15;;;;;;;;;;;23.80;47.30;;;;;;486572;244;1221;-74
2022/10/07 08:31:15;;;;;;;;;;;23.80;47.40;;;;;;486684;245;1499;-74
2022/10/07 08:33:16;;;;;;;;;;;23.80;47.30;;;;;;486759;244;1221;-75
2022/10/07 08:35:18;;;;;;;;;;;23.80;47.30;;;;;;486696;245;2195;-75
2022/10/07 08:37:19;;;;;;;;;;;23.80;47.30;;;;;;486670;245;1114;-75
2022/10/07 08:39:20;;;;;;;;;;;23.80;47.30;;;;;;486706;245;1105;-75
2022/10/07 08:41:22;;;;;;;;;;;23.70;47.40;;;;;;486782;244;1131;-75
2022/10/07 08:43:23;;;;;;;;;;;23.80;47.40;;;;;;486717;245;1087;-75
2022/10/07 08:45:26;;;;;;;;;;;23.80;47.40;;;;;;486762;244;1144;-75
2022/10/07 08:47:26;;;;;;;;;;;23.80;47.40;;;;;;486697;245;1442;-75
2022/10/07 08:49:27;;;;;;;;;;;23.80;47.30;;;;;;486832;245;1058;-74
2022/10/07 08:51:28;;;;;;;;;;;23.80;47.50;;;;;;486728;244;1086;-75
2022/10/07 08:53:29;;;;;;;;;;;23.80;47.50;;;;;;486731;245;1345;-75
2022/10/07 08:55:31;;;;;;;;;;;23.80;47.40;;;;;;486599;245;2206;-75
2022/10/07 08:57:33;;;;;;;;;;;23.80;47.40;;;;;;486767;245;1164;-75
2022/10/07 08:59:34;;;;;;;;;;;23.90;47.40;;;;;;486534;244;1402;-75
2022/10/07 09:01:35;;;;;;;;;;;23.90;47.50;;;;;;486787;245;1114;-75
2022/10/07 09:03:36;;;;;;;;;;;23.80;47.50;;;;;;486519;244;1221;-75
2022/10/07 09:05:39;;;;;;;;;;;23.90;47.60;;;;;;486537;245;1041;-74
2022/10/07 09:07:39;;;;;;;;;;;23.90;47.60;;;;;;486578;245;1887;-74
2022/10/07 09:09:41;;;;;;;;;;;23.80;47.40;;;;;;486557;245;1124;-74
2022/10/07 09:11:42;;;;;;;;;;;23.90;47.50;;;;;;486595;244;1141;-75
2022/10/07 09:13:45;;;;;;;;;;;23.80;47.50;;;;;;486615;245;1163;-74
2022/10/07 09:15:45;;;;;;;;;;;23.80;47.70;;;;;;486564;245;2191;-75
2022/10/07 09:17:45;;;;;;;;;;;23.80;47.70;;;;;;486553;245;1121;-75
2022/10/07 09:19:47;;;;;;;;;;;23.80;47.80;;;;;;486487;245;1166;-74
2022/10/07 09:21:48;;;;;;;;;;;23.80;47.80;;;;;;486552;244;1075;-75
2022/10/07 09:23:49;;;;;;;;;;;23.70;47.90;;;;;;486642;245;1101;-75
2022/10/07 09:25:51;;;;;;;;;;;23.80;47.90;;;;;;486587;245;1146;-75
2022/10/07 09:27:53;;;;;;;;;;;23.80;48.00;;;;;;486624;245;1128;-75
2022/10/07 09:29:54;;;;;;;;;;;23.80;48.00;;;;;;486583;245;1350;-75
2022/10/07 09:31:55;;;;;;;;;;;23.80;48.00;;;;;;486645;244;1056;-74
2022/10/07 09:33:56;;;;;;;;;;;23.70;48.00;;;;;;486748;245;1169;-74
2022/10/07 09:35:58;;;;;;;;;;;23.80;48.00;;;;;;486589;245;2171;-74
2022/10/07 09:37:59;;;;;;;;;;;23.80;48.10;;;;;;486709;245;1101;-75
2022/10/07 09:40:00;;;;;;;;;;;23.80;48.00;;;;;;486628;245;1044;-75
2022/10/07 09:42:02;;;;;;;;;;;23.70;48.00;;;;;;486728;245;1104;-75
2022/10/07 09:44:03;;;;;;;;;;;23.80;48.10;;;;;;486593;245;1083;-74
2022/10/07 09:46:04;;;;;;;;;;;23.80;48.10;;;;;;486749;245;1061;-74
2022/10/07 09:48:06;;;;;;;;;;;23.80;48.10;;;;;;486895;244;1570;-74
2022/10/07 09:50:08;;;;;;;;;;;23.80;48.10;;;;;;486642;245;1119;-75
2022/10/07 09:52:09;;;;;;;;;;;23.70;48.10;;;;;;486816;245;1092;-75
2022/10/07 09:54:10;;;;;;;;;;;23.80;48.20;;;;;;486774;245;2205;-75
2022/10/07 09:56:12;;;;;;;;;;;23.80;48.20;;;;;;486839;245;1044;-75
2022/10/07 09:58:13;;;;;;;;;;;23.70;48.20;;;;;;486689;244;1011;-75
2022/10/07 10:00:14;;;;;;;;;;;23.80;48.30;;;;;;486701;245;1070;-74
2022/10/07 10:02:15;;;;;;;;;;;23.80;48.30;;;;;;486660;245;1052;-74
2022/10/07 10:04:17;;;;;;;;;;;23.80;48.30;;;;;;486704;245;1127;-74
2022/10/07 10:06:18;;;;;;;;;;;23.70;48.30;;;;;;486718;245;1048;-74
2022/10/07 10:08:19;;;;;;;;;;;23.70;48.30;;;;;;486614;244;1163;-74
2022/10/07 10:10:21;;;;;;;;;;;23.70;48.30;;;;;;486534;245;1257;-74
2022/10/07 10:12:22;;;;;;;;;;;23.80;48.20;;;;;;486647;244;1116;-74
2022/10/07 10:14:23;;;;;;;;;;;23.80;48.20;;;;;;486660;245;2195;-75
2022/10/07 10:16:25;;;;;;;;;;;23.80;48.20;;;;;;486609;245;1209;-74
2022/10/07 10:18:26;;;;;;;;;;;23.80;48.30;;;;;;486566;245;1167;-74
2022/10/07 10:20:27;;;;;;;;;;;23.70;48.40;;;;;;486605;244;1233;-74
2022/10/07 10:22:29;;;;;;;;;;;23.70;48.40;;;;;;486697;245;1162;-74
2022/10/07 10:26:49;;;;;;;;;;;23.70;48.50;;;;;;486842;245;1153;-75
2022/10/07 10:28:51;;;;;;;;;;;23.70;48.60;;;;;;486768;245;1080;-74
2022/10/07 10:30:53;;;;;;;;;;;23.70;48.60;;;;;;486686;245;1040;-75
2022/10/07 10:32:54;;;;;;;;;;;23.80;48.50;;;;;;486646;245;1423;-75
2022/10/07 10:34:55;;;;;;;;;;;23.80;48.60;;;;;;486834;244;2154;-75
2022/10/07 10:36:56;;;;;;;;;;;23.80;48.50;;;;;;486742;245;1175;-74
2022/10/07 10:39:00;;;;;;;;;;;23.80;48.60;;;;;;486647;245;1220;-74
2022/10/07 10:40:59;;;;;;;;;;;23.80;48.60;;;;;;486556;245;1388;-74
2022/10/07 10:43:00;;;;;;;;;;;23.80;48.60;;;;;;486750;244;1304;-74
2022/10/07 10:45:06;;;;;;;;;;;23.80;48.70;;;;;;486703;245;1096;-75
2022/10/07 10:47:04;;;;;;;;;;;23.80;48.70;;;;;;486569;245;1439;-75
2022/10/07 10:49:06;;;;;;;;;;;23.70;48.70;;;;;;486837;245;1124;-75
2022/10/07 10:51:07;;;;;;;;;;;23.80;48.70;;;;;;486841;245;1080;-75
2022/10/07 10:53:08;;;;;;;;;;;23.80;48.70;;;;;;486806;244;1139;-74
2022/10/07 10:55:11;;;;;;;;;;;23.90;48.70;;;;;;486956;245;2187;-74
2022/10/07 10:57:13;;;;;;;;;;;23.80;48.70;;;;;;486871;245;1491;-74
2022/10/07 10:59:13;;;;;;;;;;;23.80;48.60;;;;;;486861;245;1445;-74
2022/10/07 11:01:14;;;;;;;;;;;23.80;48.60;;;;;;486902;244;1298;-74
2022/10/07 11:03:15;;;;;;;;;;;23.70;48.70;;;;;;486860;245;1090;-75
2022/10/07 11:05:17;;;;;;;;;;;23.70;48.70;;;;;;486916;245;1148;-74
2022/10/07 11:07:18;;;;;;;;;;;23.70;48.80;;;;;;486890;245;1152;-74
2022/10/07 11:09:19;;;;;;;;;;;23.60;48.80;;;;;;486718;245;1096;-74
2022/10/07 11:11:21;;;;;;;;;;;23.60;48.90;;;;;;486748;244;1143;-74
2022/10/07 11:13:22;;;;;;;;;;;23.60;49.00;;;;;;486785;245;1160;-74
2022/10/07 11:15:24;;;;;;;;;;;23.60;49.00;;;;;;486577;244;2194;-74
2022/10/07 11:17:25;;;;;;;;;;;23.60;49.00;;;;;;486778;245;1284;-74
2022/10/07 11:19:26;;;;;;;;;;;23.60;49.00;;;;;;486559;245;1102;-75
2022/10/07 11:21:28;;;;;;;;;;;23.60;49.10;;;;;;486703;245;1110;-75
2022/10/07 11:23:29;;;;;;;;;;;23.60;49.10;;;;;;486873;245;1137;-75
2022/10/07 11:25:30;;;;;;;;;;;23.70;49.10;;;;;;486727;245;1186;-75
2022/10/07 11:27:32;;;;;;;;;;;23.60;49.10;;;;;;486791;245;1224;-75
2022/10/07 11:29:33;;;;;;;;;;;23.60;49.20;;;;;;486762;245;1088;-75
2022/10/07 11:31:34;;;;;;;;;;;23.60;49.10;;;;;;486777;245;1143;-75
2022/10/07 11:33:36;;;;;;;;;;;23.70;49.20;;;;;;486755;244;1255;-74
2022/10/07 11:35:37;;;;;;;;;;;23.70;49.10;;;;;;486801;245;2202;-74
2022/10/07 11:37:38;;;;;;;;;;;23.70;49.20;;;;;;486857;244;1072;-74
2022/10/07 11:39:40;;;;;;;;;;;23.70;49.40;;;;;;486749;245;1105;-74
2022/10/07 11:41:41;;;;;;;;;;;23.70;49.30;;;;;;486749;245;1083;-74
2022/10/07 11:43:43;;;;;;;;;;;23.70;49.20;;;;;;486717;245;1110;-74
2022/10/07 11:45:45;;;;;;;;;;;23.70;49.30;;;;;;486734;245;1487;-74
2022/10/07 11:47:45;;;;;;;;;;;23.80;49.30;;;;;;486770;245;2132;-74
2022/10/07 11:49:46;;;;;;;;;;;23.70;49.30;;;;;;486848;245;1107;-74
2022/10/07 11:51:49;;;;;;;;;;;23.70;49.30;;;;;;486636;245;1075;-74
2022/10/07 11:53:50;;;;;;;;;;;23.80;49.30;;;;;;486768;245;1458;-75
2022/10/07 11:55:51;;;;;;;;;;;23.80;49.40;;;;;;486730;245;2199;-74
2022/10/07 11:57:53;;;;;;;;;;;23.80;49.30;;;;;;486722;245;1265;-75
2022/10/07 11:59:55;;;;;;;;;;;23.80;49.30;;;;;;486754;245;1142;-75
2022/10/07 12:01:55;;;;;;;;;;;23.80;49.30;;;;;;486713;245;1456;-75
2022/10/07 12:03:58;;;;;;;;;;;23.80;49.30;;;;;;486793;244;1130;-75
2022/10/07 12:05:58;;;;;;;;;;;23.80;49.30;;;;;;486665;245;2269;-75